Time;durP1;ratioP1;P1;durP2;ratioP2;P2;SDS_P1;SDS_P2;PMS_P1;PMS_P2;Temp;Humidity;BMP_temperature;BMP_pressure;BME280_temperature;BME280_humidity;BME280_pressure;Samples;Min_cycle;Max_cycle;Signal;HPM_P1;HPM_P2
2023/07/22 00:00:15;;;;;;;4.35;1.40;;;;;;;;;;5035325;28;20038;-80
2023/07/22 00:02:44;;;;;;;7.68;1.90;;;;;;;;;;5018769;28;20056;-79
2023/07/22 00:05:12;;;;;;;6.93;1.83;;;;;;;;;;5035495;28;20041;-79
2023/07/22 00:07:38;;;;;;;3.40;1.55;;;;;;;;;;5034965;28;20362;-79
2023/07/22 00:10:03;;;;;;;5.53;1.90;;;;;;;;;;5017297;28;20026;-80
2023/07/22 00:12:30;;;;;;;3.50;1.38;;;;;;;;;;5017352;28;20109;-79
2023/07/22 00:14:56;;;;;;;4.72;1.50;;;;;;;;;;5034796;28;20124;-80
2023/07/22 00:17:21;;;;;;;3.95;1.58;;;;;;;;;;5035034;28;20115;-79
2023/07/22 00:19:47;;;;;;;2.33;1.35;;;;;;;;;;5017110;28;20050;-79
2023/07/22 00:22:15;;;;;;;2.65;1.63;;;;;;;;;;5017442;28;20044;-79
2023/07/22 00:24:40;;;;;;;5.32;1.48;;;;;;;;;;5034438;28;20029;-79
2023/07/22 00:27:08;;;;;;;2.38;1.35;;;;;;;;;;5034257;28;20022;-80
2023/07/22 00:29:34;;;;;;;4.05;1.40;;;;;;;;;;5017187;28;20028;-80
2023/07/22 00:31:59;;;;;;;1.90;1.40;;;;;;;;;;5034698;28;20034;-79
2023/07/22 00:34:25;;;;;;;2.25;1.20;;;;;;;;;;5034258;28;20063;-79
2023/07/22 00:36:50;;;;;;;2.97;1.73;;;;;;;;;;5034360;28;20037;-79
2023/07/22 00:39:16;;;;;;;2.60;1.23;;;;;;;;;;5034087;28;20032;-80
2023/07/22 00:41:44;;;;;;;2.38;1.30;;;;;;;;;;5034793;28;20123;-80
2023/07/22 00:44:10;;;;;;;3.17;1.38;;;;;;;;;;5034272;28;20051;-79
2023/07/22 00:46:36;;;;;;;3.83;1.40;;;;;;;;;;5016420;28;20124;-79
2023/07/22 00:49:01;;;;;;;3.75;1.30;;;;;;;;;;5034158;28;20187;-80
2023/07/22 00:51:26;;;;;;;2.35;1.40;;;;;;;;;;5016735;28;20036;-80
2023/07/22 00:53:52;;;;;;;3.45;1.40;;;;;;;;;;5016665;28;20028;-79
2023/07/22 00:56:17;;;;;;;2.78;1.08;;;;;;;;;;5033017;28;20044;-79
2023/07/22 00:58:43;;;;;;;2.90;1.10;;;;;;;;;;4999950;28;20536;-81
2023/07/22 01:01:08;;;;;;;2.05;1.10;;;;;;;;;;5034027;28;20043;-79
2023/07/22 01:03:33;;;;;;;4.10;1.17;;;;;;;;;;5032687;28;20327;-79
2023/07/22 01:06:00;;;;;;;2.08;1.40;;;;;;;;;;5032593;28;20477;-78
2023/07/22 01:08:26;;;;;;;2.75;1.10;;;;;;;;;;5016246;28;20036;-79
2023/07/22 01:10:51;;;;;;;2.80;1.38;;;;;;;;;;5016274;28;20021;-79
2023/07/22 01:13:16;;;;;;;1.98;1.38;;;;;;;;;;5033727;28;20108;-79
2023/07/22 01:15:42;;;;;;;3.38;1.05;;;;;;;;;;5016138;28;20477;-78
2023/07/22 01:18:07;;;;;;;2.97;1.27;;;;;;;;;;5000303;28;20479;-79
2023/07/22 01:20:33;;;;;;;2.25;1.20;;;;;;;;;;5016248;28;20033;-79
2023/07/22 01:22:58;;;;;;;3.83;1.50;;;;;;;;;;5016012;28;20037;-79
2023/07/22 01:25:23;;;;;;;4.28;1.30;;;;;;;;;;5032455;28;20022;-79
2023/07/22 01:27:52;;;;;;;3.33;1.20;;;;;;;;;;5016052;28;20025;-79
2023/07/22 01:30:19;;;;;;;3.65;1.40;;;;;;;;;;4999489;28;20033;-79
2023/07/22 01:32:44;;;;;;;2.63;1.38;;;;;;;;;;5016109;28;20025;-80
2023/07/22 01:35:10;;;;;;;3.15;1.58;;;;;;;;;;5032382;28;20063;-80
2023/07/22 01:37:35;;;;;;;4.65;1.45;;;;;;;;;;5033604;28;20021;-80
2023/07/22 01:40:01;;;;;;;2.75;1.20;;;;;;;;;;5034694;28;20047;-79
2023/07/22 01:42:27;;;;;;;7.00;1.40;;;;;;;;;;5038405;28;20033;-80
2023/07/22 01:44:53;;;;;;;3.53;1.30;;;;;;;;;;5037617;28;20445;-79
2023/07/22 01:47:18;;;;;;;2.53;1.30;;;;;;;;;;5037493;28;20033;-80
2023/07/22 01:49:44;;;;;;;3.58;1.23;;;;;;;;;;5020157;28;20369;-80
2023/07/22 01:52:09;;;;;;;2.08;1.40;;;;;;;;;;5037340;28;20472;-79
2023/07/22 01:54:34;;;;;;;1.73;1.10;;;;;;;;;;5037361;28;20403;-79
2023/07/22 01:57:00;;;;;;;3.47;1.30;;;;;;;;;;5037631;28;20025;-81
2023/07/22 01:59:25;;;;;;;8.25;1.58;;;;;;;;;;5037356;28;20464;-80
2023/07/22 02:01:51;;;;;;;5.35;1.30;;;;;;;;;;5037565;28;20025;-80
2023/07/22 02:04:17;;;;;;;3.85;1.42;;;;;;;;;;5037332;28;20488;-80
2023/07/22 02:06:42;;;;;;;5.05;1.48;;;;;;;;;;5035692;28;20041;-81
2023/07/22 02:09:13;;;;;;;3.28;1.40;;;;;;;;;;5019485;28;20035;-80
2023/07/22 02:11:38;;;;;;;4.35;1.50;;;;;;;;;;5037119;28;20417;-81
2023/07/22 02:14:06;;;;;;;4.43;1.42;;;;;;;;;;5037005;28;20153;-80
2023/07/22 02:16:34;;;;;;;3.72;1.40;;;;;;;;;;5037006;28;20021;-80
2023/07/22 02:19:00;;;;;;;4.90;1.63;;;;;;;;;;5019341;28;20103;-80
2023/07/22 02:21:25;;;;;;;3.03;1.45;;;;;;;;;;5019115;28;20076;-81
2023/07/22 02:23:50;;;;;;;3.25;1.30;;;;;;;;;;5036977;28;20067;-80
2023/07/22 02:26:16;;;;;;;2.45;1.50;;;;;;;;;;5019142;28;20427;-80
2023/07/22 02:28:42;;;;;;;4.53;1.67;;;;;;;;;;5037171;28;20022;-80
2023/07/22 02:31:08;;;;;;;5.03;1.80;;;;;;;;;;5035914;28;20064;-81
2023/07/22 02:33:33;;;;;;;3.50;1.70;;;;;;;;;;5019003;28;20069;-80
2023/07/22 02:35:59;;;;;;;3.58;1.83;;;;;;;;;;5036329;28;20076;-80
2023/07/22 02:38:24;;;;;;;3.03;1.70;;;;;;;;;;5036708;28;20025;-80
2023/07/22 02:40:49;;;;;;;10.25;2.13;;;;;;;;;;5036739;28;20028;-80
2023/07/22 02:43:15;;;;;;;4.38;2.28;;;;;;;;;;5036790;28;20029;-81
2023/07/22 02:45:40;;;;;;;2.42;1.58;;;;;;;;;;5036550;28;20021;-80
2023/07/22 02:48:06;;;;;;;4.40;2.08;;;;;;;;;;5036646;28;20061;-80
2023/07/22 02:50:31;;;;;;;2.90;1.70;;;;;;;;;;5018375;28;20036;-80
2023/07/22 02:52:57;;;;;;;4.90;1.90;;;;;;;;;;5036551;28;20127;-81
2023/07/22 02:55:23;;;;;;;5.38;1.58;;;;;;;;;;5019005;28;20041;-80
2023/07/22 02:57:48;;;;;;;6.65;2.13;;;;;;;;;;5035117;28;20029;-80
2023/07/22 03:00:23;;;;;;;4.72;2.00;;;;;;;;;;5002100;28;20060;-80
2023/07/22 03:02:49;;;;;;;5.07;2.00;;;;;;;;;;5019690;28;20025;-80
2023/07/22 03:05:14;;;;;;;2.35;1.60;;;;;;;;;;5018549;28;20413;-80
2023/07/22 03:07:40;;;;;;;4.80;2.00;;;;;;;;;;5036116;28;20025;-81
2023/07/22 03:10:06;;;;;;;4.88;1.73;;;;;;;;;;5002107;28;20128;-79
2023/07/22 03:12:33;;;;;;;3.10;2.03;;;;;;;;;;5036286;28;20022;-80
2023/07/22 03:14:58;;;;;;;4.10;1.70;;;;;;;;;;5018204;28;20419;-80
2023/07/22 03:17:24;;;;;;;4.00;1.40;;;;;;;;;;5034729;28;20026;-80
2023/07/22 03:19:49;;;;;;;3.33;1.70;;;;;;;;;;5035514;28;20048;-79
2023/07/22 03:22:21;;;;;;;4.65;1.70;;;;;;;;;;5018017;28;20037;-80
2023/07/22 03:24:46;;;;;;;3.25;1.52;;;;;;;;;;5035727;28;20396;-79
2023/07/22 03:27:12;;;;;;;2.65;1.73;;;;;;;;;;5035680;28;20116;-80
2023/07/22 03:29:38;;;;;;;3.05;1.58;;;;;;;;;;5001558;28;20030;-80
2023/07/22 03:32:04;;;;;;;3.25;1.98;;;;;;;;;;5017839;28;20072;-80
2023/07/22 03:34:30;;;;;;;3.47;2.30;;;;;;;;;;5034465;28;20041;-80
2023/07/22 03:36:55;;;;;;;2.55;1.85;;;;;;;;;;5017908;28;20021;-80
2023/07/22 03:39:21;;;;;;;6.35;2.20;;;;;;;;;;5035410;28;20412;-79
2023/07/22 03:41:46;;;;;;;6.10;2.20;;;;;;;;;;5034279;28;20099;-80
2023/07/22 03:44:12;;;;;;;4.88;1.88;;;;;;;;;;5034183;28;20022;-80
2023/07/22 03:46:38;;;;;;;6.13;2.45;;;;;;;;;;5034180;28;20021;-80
2023/07/22 03:49:03;;;;;;;7.82;2.13;;;;;;;;;;5033941;28;20025;-80
2023/07/22 03:51:29;;;;;;;4.85;2.08;;;;;;;;;;5017698;28;20033;-79
2023/07/22 03:53:54;;;;;;;5.20;2.30;;;;;;;;;;5035230;28;20030;-81
2023/07/22 03:56:20;;;;;;;7.57;2.35;;;;;;;;;;5017393;28;20033;-80
2023/07/22 03:58:45;;;;;;;4.38;2.20;;;;;;;;;;5033885;28;20484;-80
2023/07/22 04:01:11;;;;;;;5.32;2.22;;;;;;;;;;5035143;28;20476;-80
2023/07/22 04:03:37;;;;;;;6.38;2.10;;;;;;;;;;5034196;28;20120;-80
2023/07/22 04:06:02;;;;;;;7.72;2.40;;;;;;;;;;5017198;28;20065;-80
2023/07/22 04:08:28;;;;;;;4.47;2.30;;;;;;;;;;5017311;28;20025;-80
2023/07/22 04:10:54;;;;;;;3.40;1.73;;;;;;;;;;5017116;28;20432;-80
2023/07/22 04:13:19;;;;;;;7.75;2.00;;;;;;;;;;5001057;28;20040;-79
2023/07/22 04:15:46;;;;;;;2.83;1.73;;;;;;;;;;5017102;28;20025;-81
2023/07/22 04:18:11;;;;;;;4.07;2.42;;;;;;;;;;5016985;28;20033;-80
2023/07/22 04:20:37;;;;;;;5.43;2.45;;;;;;;;;;5034939;28;20029;-79
2023/07/22 04:23:02;;;;;;;5.30;2.40;;;;;;;;;;5016933;28;20301;-82
2023/07/22 04:25:28;;;;;;;8.85;2.75;;;;;;;;;;5017222;28;20093;-79
2023/07/22 04:27:53;;;;;;;4.10;2.40;;;;;;;;;;5016867;28;20124;-79
2023/07/22 04:30:20;;;;;;;4.97;2.33;;;;;;;;;;5017374;28;20053;-79
2023/07/22 04:32:49;;;;;;;9.07;2.20;;;;;;;;;;5034331;28;20538;-80
2023/07/22 04:35:18;;;;;;;7.88;2.40;;;;;;;;;;5034334;28;20590;-79
2023/07/22 04:37:44;;;;;;;9.43;2.22;;;;;;;;;;5034656;28;20041;-82
2023/07/22 04:40:14;;;;;;;5.75;2.50;;;;;;;;;;5034604;28;20077;-80
2023/07/22 04:42:40;;;;;;;7.70;2.85;;;;;;;;;;5034296;28;20392;-81
2023/07/22 04:45:09;;;;;;;8.50;2.95;;;;;;;;;;5033919;28;20028;-80
2023/07/22 04:47:35;;;;;;;3.55;2.28;;;;;;;;;;5016886;28;20468;-79
2023/07/22 04:50:01;;;;;;;4.38;2.05;;;;;;;;;;5016473;28;20030;-80
2023/07/22 04:52:26;;;;;;;8.38;2.08;;;;;;;;;;5034683;28;20435;-80
2023/07/22 04:54:53;;;;;;;3.10;2.30;;;;;;;;;;5034215;28;20052;-80
2023/07/22 04:57:20;;;;;;;4.05;2.72;;;;;;;;;;5033138;28;20059;-80
2023/07/22 04:59:45;;;;;;;5.00;3.22;;;;;;;;;;5033843;28;20021;-79
2023/07/22 05:02:11;;;;;;;8.73;3.00;;;;;;;;;;5033969;28;20331;-79
2023/07/22 05:04:36;;;;;;;6.45;3.00;;;;;;;;;;5034012;28;20049;-80
2023/07/22 05:07:02;;;;;;;5.60;3.22;;;;;;;;;;5032578;28;20127;-80
2023/07/22 05:09:27;;;;;;;4.20;2.47;;;;;;;;;;5034382;28;20069;-80
2023/07/22 05:11:53;;;;;;;10.07;3.30;;;;;;;;;;5033977;28;20033;-80
2023/07/22 05:14:18;;;;;;;8.15;3.42;;;;;;;;;;5032689;28;20064;-80
2023/07/22 05:16:44;;;;;;;9.85;3.50;;;;;;;;;;5032760;28;20120;-81
2023/07/22 05:19:09;;;;;;;4.80;3.25;;;;;;;;;;5033841;28;20102;-80
2023/07/22 05:21:35;;;;;;;5.40;3.25;;;;;;;;;;5033753;28;20025;-79
2023/07/22 05:24:00;;;;;;;7.22;4.38;;;;;;;;;;5033988;28;20461;-80
2023/07/22 05:26:25;;;;;;;10.35;4.15;;;;;;;;;;5034084;28;20453;-80
2023/07/22 05:28:51;;;;;;;6.53;3.53;;;;;;;;;;4999608;28;20036;-79
2023/07/22 05:31:16;;;;;;;7.40;3.40;;;;;;;;;;5033704;28;20029;-79
2023/07/22 05:33:42;;;;;;;9.40;3.78;;;;;;;;;;5032440;28;20032;-79
2023/07/22 05:36:07;;;;;;;13.02;3.95;;;;;;;;;;5032385;28;20453;-80
2023/07/22 05:38:32;;;;;;;10.40;3.28;;;;;;;;;;5032452;28;20029;-79
2023/07/22 05:40:58;;;;;;;10.73;3.00;;;;;;;;;;5016007;28;20112;-79
2023/07/22 05:43:23;;;;;;;6.28;3.47;;;;;;;;;;5015719;28;20120;-81
2023/07/22 05:45:49;;;;;;;14.93;4.28;;;;;;;;;;5016131;28;20453;-81
2023/07/22 05:48:15;;;;;;;15.20;4.90;;;;;;;;;;5032571;28;20042;-79
2023/07/22 05:50:40;;;;;;;12.68;4.43;;;;;;;;;;5033617;28;20034;-80
2023/07/22 05:53:06;;;;;;;11.70;4.00;;;;;;;;;;5015768;28;20060;-80
2023/07/22 05:55:31;;;;;;;11.82;3.60;;;;;;;;;;5033647;28;20082;-79
2023/07/22 05:57:56;;;;;;;14.77;3.65;;;;;;;;;;5015379;28;20033;-80
2023/07/22 06:00:22;;;;;;;11.80;3.97;;;;;;;;;;5015806;28;20163;-81
2023/07/22 06:02:48;;;;;;;11.93;3.40;;;;;;;;;;5033671;28;20113;-80
2023/07/22 06:05:13;;;;;;;12.35;3.60;;;;;;;;;;5033451;28;20059;-81
2023/07/22 06:07:39;;;;;;;9.35;3.45;;;;;;;;;;5033361;28;20035;-81
2023/07/22 06:10:05;;;;;;;8.07;2.83;;;;;;;;;;5015550;28;20031;-82
2023/07/22 06:12:30;;;;;;;7.05;2.88;;;;;;;;;;5015458;28;20033;-81
2023/07/22 06:14:56;;;;;;;9.25;2.80;;;;;;;;;;5015531;28;20374;-80
2023/07/22 06:17:21;;;;;;;9.38;2.40;;;;;;;;;;5015696;28;20032;-80
2023/07/22 06:19:47;;;;;;;9.15;2.55;;;;;;;;;;5033212;28;20107;-81
2023/07/22 06:22:13;;;;;;;9.98;2.63;;;;;;;;;;5033077;28;20025;-80
2023/07/22 06:24:38;;;;;;;9.27;2.97;;;;;;;;;;5015622;28;20034;-81
2023/07/22 06:27:04;;;;;;;10.43;2.80;;;;;;;;;;5036246;28;20037;-80
2023/07/22 06:29:29;;;;;;;6.35;2.47;;;;;;;;;;5019619;28;20029;-81
2023/07/22 06:31:54;;;;;;;9.30;2.67;;;;;;;;;;5036781;28;20127;-81
2023/07/22 06:34:20;;;;;;;6.75;2.60;;;;;;;;;;5019190;28;20061;-80
2023/07/22 06:36:45;;;;;;;10.52;2.58;;;;;;;;;;5019068;28;20029;-81
2023/07/22 06:39:11;;;;;;;7.20;2.58;;;;;;;;;;5019138;28;20034;-81
2023/07/22 06:41:36;;;;;;;7.13;2.60;;;;;;;;;;5018653;28;20025;-81
2023/07/22 06:44:02;;;;;;;7.85;2.88;;;;;;;;;;5036541;28;20032;-80
2023/07/22 06:46:27;;;;;;;6.75;2.35;;;;;;;;;;5018903;28;20029;-81
2023/07/22 06:48:52;;;;;;;7.82;2.72;;;;;;;;;;5018695;28;20029;-80
2023/07/22 06:51:18;;;;;;;12.23;2.55;;;;;;;;;;5036341;28;20029;-80
2023/07/22 06:53:43;;;;;;;7.88;2.72;;;;;;;;;;5036288;28;20123;-81
2023/07/22 06:56:09;;;;;;;7.95;2.75;;;;;;;;;;5035980;28;20136;-80
2023/07/22 06:58:34;;;;;;;7.20;2.47;;;;;;;;;;5036348;28;20035;-81
2023/07/22 07:01:00;;;;;;;7.38;2.50;;;;;;;;;;5018787;28;20061;-79
2023/07/22 07:03:25;;;;;;;14.32;3.10;;;;;;;;;;5035070;28;20033;-80
2023/07/22 07:05:57;;;;;;;9.55;2.80;;;;;;;;;;5018619;28;20049;-80
2023/07/22 07:08:23;;;;;;;9.30;2.92;;;;;;;;;;5036040;28;20503;-80
2023/07/22 07:10:49;;;;;;;8.07;2.67;;;;;;;;;;5034669;28;20026;-81
2023/07/22 07:13:14;;;;;;;8.30;2.53;;;;;;;;;;5018652;28;20033;-80
2023/07/22 07:15:40;;;;;;;8.40;2.70;;;;;;;;;;5018570;28;20040;-80
2023/07/22 07:18:05;;;;;;;6.07;2.40;;;;;;;;;;5018394;28;20029;-79
2023/07/22 07:20:30;;;;;;;6.30;2.50;;;;;;;;;;5035791;28;20372;-80
2023/07/22 07:22:56;;;;;;;6.80;2.60;;;;;;;;;;5035826;28;20032;-81
2023/07/22 07:25:21;;;;;;;6.60;2.80;;;;;;;;;;5018090;28;20029;-82
2023/07/22 07:27:47;;;;;;;8.40;2.58;;;;;;;;;;5036011;28;20025;-80
2023/07/22 07:30:12;;;;;;;7.70;2.70;;;;;;;;;;5035631;28;20082;-81
2023/07/22 07:32:38;;;;;;;8.10;2.55;;;;;;;;;;5034456;28;20079;-80
2023/07/22 07:35:04;;;;;;;9.00;2.90;;;;;;;;;;5001328;28;20176;-81
2023/07/22 07:37:29;;;;;;;6.47;2.63;;;;;;;;;;5017016;28;20100;-80
2023/07/22 07:39:59;;;;;;;9.27;2.85;;;;;;;;;;5034162;28;20029;-81
2023/07/22 07:42:27;;;;;;;7.78;2.95;;;;;;;;;;5034993;28;20467;-81
2023/07/22 07:44:53;;;;;;;10.57;2.90;;;;;;;;;;5035534;28;20033;-80
2023/07/22 07:47:18;;;;;;;9.40;3.08;;;;;;;;;;5017882;28;20032;-80
2023/07/22 07:49:44;;;;;;;6.07;2.70;;;;;;;;;;5035509;28;20029;-80
2023/07/22 07:52:10;;;;;;;10.85;3.15;;;;;;;;;;5017682;28;20433;-80
2023/07/22 07:54:35;;;;;;;7.68;3.15;;;;;;;;;;5017468;28;20033;-81
2023/07/22 07:57:01;;;;;;;10.30;3.15;;;;;;;;;;5017891;28;20026;-79
2023/07/22 07:59:27;;;;;;;7.95;2.72;;;;;;;;;;5017506;28;20029;-80
2023/07/22 08:01:52;;;;;;;7.70;2.83;;;;;;;;;;5018292;28;20472;-81
2023/07/22 08:04:18;;;;;;;9.32;3.15;;;;;;;;;;5035108;28;20468;-80
2023/07/22 08:06:44;;;;;;;6.43;2.95;;;;;;;;;;5030359;28;20453;-81
2023/07/22 08:09:10;;;;;;;10.98;3.10;;;;;;;;;;5015079;28;20022;-80
2023/07/22 08:11:36;;;;;;;6.28;3.03;;;;;;;;;;5014275;28;20365;-80
2023/07/22 08:14:02;;;;;;;13.90;3.35;;;;;;;;;;4997922;28;20030;-80
2023/07/22 08:16:27;;;;;;;7.63;2.95;;;;;;;;;;5014074;28;20410;-81
2023/07/22 08:18:53;;;;;;;7.88;2.80;;;;;;;;;;5014067;28;20031;-80
2023/07/22 08:21:19;;;;;;;11.38;3.10;;;;;;;;;;5014092;28;20057;-81
2023/07/22 08:23:46;;;;;;;8.05;3.22;;;;;;;;;;5013568;28;20361;-79
2023/07/22 08:26:12;;;;;;;7.18;2.95;;;;;;;;;;5013761;28;20434;-80
2023/07/22 08:28:37;;;;;;;11.57;3.38;;;;;;;;;;5014896;28;20179;-79
2023/07/22 08:31:03;;;;;;;15.27;3.25;;;;;;;;;;4997449;28;20054;-80
2023/07/22 08:33:28;;;;;;;11.77;3.40;;;;;;;;;;5015024;28;20418;-80
2023/07/22 08:35:54;;;;;;;10.25;3.40;;;;;;;;;;5013572;28;20052;-80
2023/07/22 08:38:20;;;;;;;7.38;3.30;;;;;;;;;;5013267;28;20033;-80
2023/07/22 08:40:48;;;;;;;8.75;2.97;;;;;;;;;;5014654;28;20026;-80
2023/07/22 08:43:14;;;;;;;8.82;3.20;;;;;;;;;;5014720;28;20050;-81
2023/07/22 08:45:40;;;;;;;11.35;3.13;;;;;;;;;;5013324;28;20500;-80
2023/07/22 08:48:09;;;;;;;9.90;3.50;;;;;;;;;;5013179;28;20065;-80
2023/07/22 08:50:45;;;;;;;12.57;3.42;;;;;;;;;;5013238;28;20029;-80
2023/07/22 08:53:12;;;;;;;8.18;2.80;;;;;;;;;;4997969;28;20393;-81
2023/07/22 08:55:39;;;;;;;7.63;3.30;;;;;;;;;;4997189;28;20116;-80
2023/07/22 08:58:06;;;;;;;7.68;3.15;;;;;;;;;;5013404;28;20041;-81
2023/07/22 09:00:32;;;;;;;7.55;2.78;;;;;;;;;;4997260;28;20026;-80
2023/07/22 09:02:57;;;;;;;7.18;2.85;;;;;;;;;;5013105;28;20376;-80
2023/07/22 09:05:23;;;;;;;10.45;2.97;;;;;;;;;;5013011;28;20038;-80
2023/07/22 09:07:48;;;;;;;7.95;3.17;;;;;;;;;;5014241;28;20080;-81
2023/07/22 09:10:14;;;;;;;9.95;3.22;;;;;;;;;;5012975;28;20397;-80
2023/07/22 09:12:40;;;;;;;10.32;3.33;;;;;;;;;;4980578;28;20450;-80
2023/07/22 09:15:12;;;;;;;10.00;3.33;;;;;;;;;;4996584;28;20039;-80
2023/07/22 09:17:38;;;;;;;8.93;3.15;;;;;;;;;;4980633;28;20030;-80
2023/07/22 09:20:05;;;;;;;11.77;3.72;;;;;;;;;;5013247;28;20466;-79
2023/07/22 09:22:31;;;;;;;12.18;3.30;;;;;;;;;;5014080;28;20041;-79
2023/07/22 09:25:15;;;;;;;7.28;3.10;;;;;;;;;;5013002;28;20038;-83
2023/07/22 09:27:41;;;;;;;5.82;2.80;;;;;;;;;;5022786;28;20450;-79
2023/07/22 09:30:32;;;;;;;10.15;2.95;;;;;;;;;;5024546;28;20080;-80
2023/07/22 09:32:58;;;;;;;8.07;2.92;;;;;;;;;;5013280;28;20046;-79
2023/07/22 09:35:29;;;;;;;6.18;3.28;;;;;;;;;;5020462;28;20026;-80
2023/07/22 09:37:54;;;;;;;8.32;3.20;;;;;;;;;;5014034;28;20026;-79
2023/07/22 09:40:26;;;;;;;8.15;3.25;;;;;;;;;;5012830;28;20029;-80
2023/07/22 09:42:53;;;;;;;10.55;3.25;;;;;;;;;;5012928;28;20084;-79
2023/07/22 09:45:19;;;;;;;7.10;3.30;;;;;;;;;;5012944;28;20026;-80
2023/07/22 09:47:46;;;;;;;10.27;3.28;;;;;;;;;;5012846;28;20037;-80
2023/07/22 09:50:16;;;;;;;8.35;3.00;;;;;;;;;;5013604;28;20026;-80
2023/07/22 09:52:48;;;;;;;12.35;3.38;;;;;;;;;;5013016;28;20030;-80
2023/07/22 09:55:18;;;;;;;7.35;3.25;;;;;;;;;;5013691;28;20036;-80
2023/07/22 09:57:48;;;;;;;9.98;3.53;;;;;;;;;;5012584;28;20046;-80
2023/07/22 10:00:15;;;;;;;10.20;3.33;;;;;;;;;;5013157;28;20026;-80
2023/07/22 10:02:45;;;;;;;11.70;3.50;;;;;;;;;;5000396;28;20025;-81
2023/07/22 10:05:17;;;;;;;10.35;3.25;;;;;;;;;;5019868;28;20453;-81
2023/07/22 10:07:45;;;;;;;8.45;3.58;;;;;;;;;;5037835;28;20099;-80
2023/07/22 10:10:11;;;;;;;13.70;3.50;;;;;;;;;;5037173;28;20036;-81
2023/07/22 10:12:37;;;;;;;9.23;3.55;;;;;;;;;;5037124;28;20036;-80
2023/07/22 10:15:03;;;;;;;10.93;3.70;;;;;;;;;;5037124;28;20063;-80
2023/07/22 10:17:29;;;;;;;8.32;3.35;;;;;;;;;;5037249;28;20116;-81
2023/07/22 10:19:54;;;;;;;8.38;3.22;;;;;;;;;;5036831;28;20032;-79
2023/07/22 10:22:19;;;;;;;11.20;3.13;;;;;;;;;;5019442;28;20029;-80
2023/07/22 10:24:45;;;;;;;10.00;3.50;;;;;;;;;;5019266;28;20030;-80
2023/07/22 10:27:10;;;;;;;10.00;3.40;;;;;;;;;;5019211;28;20084;-81
2023/07/22 10:29:36;;;;;;;11.25;3.85;;;;;;;;;;5019499;28;20383;-80
2023/07/22 10:32:01;;;;;;;6.82;3.33;;;;;;;;;;5019734;28;20372;-79
2023/07/22 10:34:27;;;;;;;10.20;3.55;;;;;;;;;;5002733;28;20040;-80
2023/07/22 10:36:55;;;;;;;7.53;3.60;;;;;;;;;;5019079;28;20029;-80
2023/07/22 10:39:25;;;;;;;;;;;;;;;;;;5036377;28;20111;-81
2023/07/22 10:41:51;;;;;;;13.15;4.00;;;;;;;;;;5036494;28;19917;-79
2023/07/22 10:44:16;;;;;;;6.97;3.50;;;;;;;;;;5018814;28;20029;-80
2023/07/22 10:46:43;;;;;;;14.20;4.05;;;;;;;;;;5018868;28;20017;-80
2023/07/22 10:49:11;;;;;;;9.95;3.58;;;;;;;;;;5019016;28;20080;-80
2023/07/22 10:51:37;;;;;;;12.05;3.72;;;;;;;;;;5019065;28;20029;-80
2023/07/22 10:54:02;;;;;;;9.18;3.65;;;;;;;;;;5036355;28;20464;-80
2023/07/22 10:56:28;;;;;;;13.77;4.20;;;;;;;;;;5036625;28;20106;-80
2023/07/22 10:58:54;;;;;;;10.20;4.30;;;;;;;;;;5018705;28;20025;-80
2023/07/22 11:01:28;;;;;;;15.68;4.43;;;;;;;;;;5036189;28;20029;-78
2023/07/22 11:04:18;;;;;;;8.57;4.35;;;;;;;;;;5036037;28;20079;-80
2023/07/22 11:06:43;;;;;;;9.30;4.28;;;;;;;;;;5036008;28;20076;-80
2023/07/22 11:09:33;;;;;;;13.18;4.50;;;;;;;;;;5036131;28;20026;-80
2023/07/22 11:12:07;;;;;;;12.90;3.92;;;;;;;;;;5036053;28;20112;-80
2023/07/22 11:14:49;;;;;;;12.85;4.32;;;;;;;;;;5036023;28;20037;-79
2023/07/22 11:17:14;;;;;;;11.43;4.03;;;;;;;;;;5018178;28;20380;-79
2023/07/22 11:19:40;;;;;;;8.95;4.30;;;;;;;;;;5035958;28;20026;-79
2023/07/22 11:22:05;;;;;;;11.95;3.83;;;;;;;;;;5018472;28;20124;-81
2023/07/22 11:24:33;;;;;;;15.77;4.55;;;;;;;;;;5035866;28;20087;-79
2023/07/22 11:26:58;;;;;;;12.52;5.20;;;;;;;;;;5035133;28;20353;-80
2023/07/22 11:29:24;;;;;;;11.43;4.25;;;;;;;;;;5035195;28;20091;-79
2023/07/22 11:31:51;;;;;;;10.98;4.80;;;;;;;;;;5035422;28;20442;-80
2023/07/22 11:34:19;;;;;;;13.48;4.65;;;;;;;;;;5018153;28;20033;-80
2023/07/22 11:36:45;;;;;;;;;;;;;;;;;;5036336;28;20026;-80
2023/07/22 11:39:13;;;;;;;11.25;4.88;;;;;;;;;;5035785;28;19917;-79
2023/07/22 11:41:41;;;;;;;12.55;5.28;;;;;;;;;;5018417;28;20033;-80
2023/07/22 11:44:08;;;;;;;14.63;5.70;;;;;;;;;;5035527;28;20468;-80
2023/07/22 11:46:34;;;;;;;15.07;5.70;;;;;;;;;;5035114;28;20368;-79
2023/07/22 11:49:00;;;;;;;15.93;5.82;;;;;;;;;;5034348;28;20033;-80
2023/07/22 11:51:25;;;;;;;16.88;5.90;;;;;;;;;;5035324;28;20017;-79
2023/07/22 11:53:53;;;;;;;11.02;5.57;;;;;;;;;;5034230;28;20132;-79
2023/07/22 11:56:22;;;;;;;16.15;6.63;;;;;;;;;;5017677;28;20030;-78
2023/07/22 11:58:54;;;;;;;13.52;6.88;;;;;;;;;;5017624;28;20048;-79
2023/07/22 12:01:20;;;;;;;18.00;6.88;;;;;;;;;;5017290;28;20373;-80
2023/07/22 12:03:46;;;;;;;15.30;6.75;;;;;;;;;;5034559;28;20025;-79
2023/07/22 12:06:11;;;;;;;14.90;6.93;;;;;;;;;;5017249;28;20558;-79
2023/07/22 12:08:45;;;;;;;15.80;7.30;;;;;;;;;;5035243;28;20021;-80
2023/07/22 12:11:23;;;;;;;11.43;7.55;;;;;;;;;;5034283;28;20040;-79
2023/07/22 12:14:24;;;;;;;13.18;7.03;;;;;;;;;;5017883;28;20025;-80
2023/07/22 12:16:53;;;;;;;13.07;7.97;;;;;;;;;;4993130;28;20161;-78
2023/07/22 12:19:18;;;;;;;12.52;9.02;;;;;;;;;;5026500;28;20037;-79
2023/07/22 12:21:43;;;;;;;16.40;8.85;;;;;;;;;;5034927;28;20311;-79
2023/07/22 12:24:13;;;;;;;18.10;9.65;;;;;;;;;;5033852;28;20033;-79
2023/07/22 12:26:39;;;;;;;16.40;9.30;;;;;;;;;;5021057;28;20124;-79
2023/07/22 12:29:04;;;;;;;16.20;9.68;;;;;;;;;;5020413;28;20480;-79
2023/07/22 12:31:29;;;;;;;13.45;10.07;;;;;;;;;;5038137;28;20029;-80
2023/07/22 12:33:55;;;;;;;20.15;10.20;;;;;;;;;;5036203;28;20075;-78
2023/07/22 12:36:20;;;;;;;17.83;10.25;;;;;;;;;;5036480;28;20112;-78
2023/07/22 12:38:46;;;;;;;15.70;9.90;;;;;;;;;;5035593;28;20029;-81
2023/07/22 12:41:11;;;;;;;17.88;9.43;;;;;;;;;;5036320;28;20029;-79
2023/07/22 12:43:37;;;;;;;14.55;10.30;;;;;;;;;;5035585;28;20177;-79
2023/07/22 12:46:02;;;;;;;14.60;9.73;;;;;;;;;;5034509;28;20577;-80
2023/07/22 12:48:27;;;;;;;14.82;9.63;;;;;;;;;;5034798;28;20061;-79
2023/07/22 12:50:53;;;;;;;14.13;9.25;;;;;;;;;;5034851;28;20124;-80
2023/07/22 12:53:18;;;;;;;18.30;9.07;;;;;;;;;;5034224;28;20086;-80
2023/07/22 12:55:44;;;;;;;15.13;9.38;;;;;;;;;;5034235;28;20025;-80
2023/07/22 12:58:09;;;;;;;14.88;9.32;;;;;;;;;;5033940;28;20052;-80
2023/07/22 13:00:35;;;;;;;13.65;9.55;;;;;;;;;;5034177;28;20495;-79
2023/07/22 13:03:00;;;;;;;15.30;9.57;;;;;;;;;;5000478;28;20032;-79
2023/07/22 13:05:25;;;;;;;20.60;8.80;;;;;;;;;;5033872;28;20048;-80
2023/07/22 13:07:51;;;;;;;16.42;8.77;;;;;;;;;;5034863;28;20021;-80
2023/07/22 13:10:21;;;;;;;13.00;8.95;;;;;;;;;;5034351;28;20465;-79
2023/07/22 13:12:48;;;;;;;14.13;9.05;;;;;;;;;;5032435;28;20115;-79
2023/07/22 13:15:14;;;;;;;18.00;9.48;;;;;;;;;;5016282;28;20037;-79
2023/07/22 13:17:39;;;;;;;14.57;9.13;;;;;;;;;;5033899;28;20029;-80
2023/07/22 13:20:08;;;;;;;15.05;9.40;;;;;;;;;;5034023;28;20044;-80
2023/07/22 13:22:35;;;;;;;17.52;9.63;;;;;;;;;;5034092;28;20039;-79
2023/07/22 13:25:01;;;;;;;14.55;9.00;;;;;;;;;;5034004;28;20037;-79
2023/07/22 13:27:26;;;;;;;13.93;9.30;;;;;;;;;;5033751;28;20124;-79
2023/07/22 13:29:51;;;;;;;15.50;9.23;;;;;;;;;;5034048;28;20029;-79
2023/07/22 13:32:17;;;;;;;18.38;9.18;;;;;;;;;;5034215;28;20021;-79
2023/07/22 13:34:42;;;;;;;17.23;9.25;;;;;;;;;;5033596;28;20436;-79
2023/07/22 13:37:08;;;;;;;14.13;8.98;;;;;;;;;;5015680;28;20022;-78
2023/07/22 13:39:33;;;;;;;12.73;9.15;;;;;;;;;;5033951;28;20021;-78
2023/07/22 13:41:59;;;;;;;13.35;9.38;;;;;;;;;;5033513;28;20024;-79
2023/07/22 13:44:24;;;;;;;15.70;9.70;;;;;;;;;;5033555;28;20028;-80
2023/07/22 13:46:50;;;;;;;15.35;9.23;;;;;;;;;;5033456;28;20033;-80
2023/07/22 13:49:15;;;;;;;15.80;8.77;;;;;;;;;;5033791;28;20519;-80
2023/07/22 13:51:41;;;;;;;12.70;9.30;;;;;;;;;;5033740;28;20029;-81
2023/07/22 13:54:07;;;;;;;12.35;8.98;;;;;;;;;;5016275;28;20364;-80
2023/07/22 13:56:33;;;;;;;18.20;9.73;;;;;;;;;;5033783;28;20120;-80
2023/07/22 13:58:59;;;;;;;13.50;9.85;;;;;;;;;;5033713;28;20440;-80
2023/07/22 14:01:24;;;;;;;21.40;9.93;;;;;;;;;;5033629;28;20063;-80
2023/07/22 14:03:49;;;;;;;16.30;9.90;;;;;;;;;;5033164;28;20065;-79
2023/07/22 14:06:15;;;;;;;15.57;10.05;;;;;;;;;;5033250;28;20049;-80
2023/07/22 14:08:41;;;;;;;18.67;9.88;;;;;;;;;;5033291;28;20029;-80
2023/07/22 14:11:07;;;;;;;13.57;10.18;;;;;;;;;;5033301;28;20026;-80
2023/07/22 14:13:33;;;;;;;14.77;10.50;;;;;;;;;;5032155;28;20437;-79
2023/07/22 14:15:58;;;;;;;20.77;10.30;;;;;;;;;;5033264;28;20028;-80
2023/07/22 14:18:24;;;;;;;16.80;9.98;;;;;;;;;;5015609;28;20025;-81
2023/07/22 14:20:50;;;;;;;13.90;9.50;;;;;;;;;;5015906;28;20025;-79
2023/07/22 14:23:15;;;;;;;19.75;9.90;;;;;;;;;;5033567;28;20044;-80
2023/07/22 14:25:40;;;;;;;20.52;10.32;;;;;;;;;;5015473;28;20421;-80
2023/07/22 14:28:06;;;;;;;19.35;10.05;;;;;;;;;;5033253;28;20072;-80
2023/07/22 14:30:32;;;;;;;21.35;10.55;;;;;;;;;;5031817;28;20115;-80
2023/07/22 14:32:57;;;;;;;21.13;10.50;;;;;;;;;;5033722;28;20107;-81